sensor_id;sensor_type;location;lat;lon;timestamp;P1;durP1;ratioP1;P2;durP2;ratioP2
71806;SDS011;59655;42.590;23.364;2024-02-21T00:01:05;6.70;;;3.53;;
71806;SDS011;59655;42.590;23.364;2024-02-21T00:03:31;6.30;;;3.90;;
71806;SDS011;59655;42.590;23.364;2024-02-21T00:05:56;5.53;;;3.55;;
71806;SDS011;59655;42.590;23.364;2024-02-21T00:08:21;6.57;;;3.88;;
71806;SDS011;59655;42.590;23.364;2024-02-21T00:10:47;6.15;;;3.40;;
71806;SDS011;59655;42.590;23.364;2024-02-21T00:13:12;6.88;;;3.70;;
71806;SDS011;59655;42.590;23.364;2024-02-21T00:15:37;5.85;;;3.17;;
71806;SDS011;59655;42.590;23.364;2024-02-21T00:18:03;6.23;;;2.70;;
71806;SDS011;59655;42.590;23.364;2024-02-21T00:20:28;5.20;;;3.13;;
71806;SDS011;59655;42.590;23.364;2024-02-21T00:22:53;4.75;;;2.47;;
71806;SDS011;59655;42.590;23.364;2024-02-21T00:25:19;5.13;;;2.55;;
71806;SDS011;59655;42.590;23.364;2024-02-21T00:27:45;5.28;;;2.50;;
71806;SDS011;59655;42.590;23.364;2024-02-21T00:30:10;4.20;;;2.60;;
71806;SDS011;59655;42.590;23.364;2024-02-21T00:32:36;5.15;;;2.53;;
71806;SDS011;59655;42.590;23.364;2024-02-21T00:35:01;4.70;;;2.47;;
71806;SDS011;59655;42.590;23.364;2024-02-21T00:37:27;4.80;;;2.50;;
71806;SDS011;59655;42.590;23.364;2024-02-21T00:39:55;4.53;;;2.67;;
71806;SDS011;59655;42.590;23.364;2024-02-21T00:42:21;4.70;;;2.70;;
71806;SDS011;59655;42.590;23.364;2024-02-21T00:44:46;4.47;;;2.20;;
71806;SDS011;59655;42.590;23.364;2024-02-21T00:47:11;4.72;;;2.50;;
71806;SDS011;59655;42.590;23.364;2024-02-21T00:49:37;4.57;;;2.42;;
71806;SDS011;59655;42.590;23.364;2024-02-21T00:52:02;4.60;;;2.50;;
71806;SDS011;59655;42.590;23.364;2024-02-21T00:54:28;5.20;;;3.22;;
71806;SDS011;59655;42.590;23.364;2024-02-21T00:56:53;5.57;;;2.70;;
71806;SDS011;59655;42.590;23.364;2024-02-21T00:59:18;5.00;;;2.75;;
71806;SDS011;59655;42.590;23.364;2024-02-21T01:01:44;4.57;;;2.38;;
71806;SDS011;59655;42.590;23.364;2024-02-21T01:04:09;4.75;;;2.45;;
71806;SDS011;59655;42.590;23.364;2024-02-21T01:06:34;4.82;;;2.92;;
71806;SDS011;59655;42.590;23.364;2024-02-21T01:09:00;4.88;;;3.00;;
71806;SDS011;59655;42.590;23.364;2024-02-21T01:11:25;6.30;;;3.30;;
71806;SDS011;59655;42.590;23.364;2024-02-21T01:13:50;6.47;;;3.40;;
71806;SDS011;59655;42.590;23.364;2024-02-21T01:16:16;6.65;;;4.10;;
71806;SDS011;59655;42.590;23.364;2024-02-21T01:18:41;6.15;;;3.63;;
71806;SDS011;59655;42.590;23.364;2024-02-21T01:21:07;6.47;;;4.25;;
71806;SDS011;59655;42.590;23.364;2024-02-21T01:23:34;6.95;;;4.20;;
71806;SDS011;59655;42.590;23.364;2024-02-21T01:26:00;7.88;;;4.13;;
71806;SDS011;59655;42.590;23.364;2024-02-21T01:28:25;7.40;;;3.90;;
71806;SDS011;59655;42.590;23.364;2024-02-21T01:30:50;6.35;;;3.53;;
71806;SDS011;59655;42.590;23.364;2024-02-21T01:33:16;7.38;;;4.05;;
71806;SDS011;59655;42.590;23.364;2024-02-21T01:35:42;5.35;;;3.30;;
71806;SDS011;59655;42.590;23.364;2024-02-21T01:38:07;7.82;;;4.18;;
71806;SDS011;59655;42.590;23.364;2024-02-21T01:40:33;7.57;;;4.45;;
71806;SDS011;59655;42.590;23.364;2024-02-21T01:42:58;7.60;;;4.15;;
71806;SDS011;59655;42.590;23.364;2024-02-21T01:45:23;6.78;;;3.60;;
71806;SDS011;59655;42.590;23.364;2024-02-21T01:47:49;6.87;;;4.20;;
71806;SDS011;59655;42.590;23.364;2024-02-21T01:50:15;7.75;;;4.30;;
71806;SDS011;59655;42.590;23.364;2024-02-21T01:52:42;8.00;;;4.28;;
71806;SDS011;59655;42.590;23.364;2024-02-21T01:55:10;8.98;;;4.70;;
71806;SDS011;59655;42.590;23.364;2024-02-21T01:57:38;8.05;;;4.40;;
71806;SDS011;59655;42.590;23.364;2024-02-21T02:00:04;9.68;;;5.45;;
71806;SDS011;59655;42.590;23.364;2024-02-21T02:02:30;10.13;;;5.22;;
71806;SDS011;59655;42.590;23.364;2024-02-21T02:04:55;12.20;;;5.93;;
71806;SDS011;59655;42.590;23.364;2024-02-21T02:07:21;13.82;;;6.07;;
71806;SDS011;59655;42.590;23.364;2024-02-21T02:09:46;10.00;;;5.43;;
71806;SDS011;59655;42.590;23.364;2024-02-21T02:12:12;10.25;;;5.65;;
71806;SDS011;59655;42.590;23.364;2024-02-21T02:14:37;13.27;;;6.78;;
71806;SDS011;59655;42.590;23.364;2024-02-21T02:17:02;11.80;;;6.47;;
71806;SDS011;59655;42.590;23.364;2024-02-21T02:19:28;13.00;;;6.88;;
71806;SDS011;59655;42.590;23.364;2024-02-21T02:21:53;11.90;;;5.73;;
71806;SDS011;59655;42.590;23.364;2024-02-21T02:24:24;13.52;;;6.10;;
71806;SDS011;59655;42.590;23.364;2024-02-21T02:26:53;9.48;;;5.18;;
71806;SDS011;59655;42.590;23.364;2024-02-21T02:29:18;11.38;;;5.82;;
71806;SDS011;59655;42.590;23.364;2024-02-21T02:31:44;9.25;;;5.65;;
71806;SDS011;59655;42.590;23.364;2024-02-21T02:34:09;11.75;;;6.85;;
71806;SDS011;59655;42.590;23.364;2024-02-21T02:36:35;12.82;;;6.63;;
71806;SDS011;59655;42.590;23.364;2024-02-21T02:39:00;11.95;;;6.68;;
71806;SDS011;59655;42.590;23.364;2024-02-21T02:41:26;12.93;;;6.60;;
71806;SDS011;59655;42.590;23.364;2024-02-21T02:43:51;13.30;;;7.07;;
71806;SDS011;59655;42.590;23.364;2024-02-21T02:46:16;14.10;;;7.32;;
71806;SDS011;59655;42.590;23.364;2024-02-21T02:48:42;13.50;;;7.38;;
71806;SDS011;59655;42.590;23.364;2024-02-21T02:51:07;14.02;;;7.55;;
71806;SDS011;59655;42.590;23.364;2024-02-21T02:53:32;13.45;;;7.78;;
71806;SDS011;59655;42.590;23.364;2024-02-21T02:55:58;14.88;;;7.45;;
71806;SDS011;59655;42.590;23.364;2024-02-21T02:58:23;13.13;;;7.32;;
71806;SDS011;59655;42.590;23.364;2024-02-21T03:00:48;14.30;;;7.90;;
71806;SDS011;59655;42.590;23.364;2024-02-21T03:03:14;13.45;;;7.53;;
71806;SDS011;59655;42.590;23.364;2024-02-21T03:05:39;14.00;;;7.47;;
71806;SDS011;59655;42.590;23.364;2024-02-21T03:08:04;15.75;;;7.60;;
71806;SDS011;59655;42.590;23.364;2024-02-21T03:10:32;17.65;;;8.75;;
71806;SDS011;59655;42.590;23.364;2024-02-21T03:12:58;17.05;;;8.80;;
71806;SDS011;59655;42.590;23.364;2024-02-21T03:15:23;21.23;;;10.48;;
71806;SDS011;59655;42.590;23.364;2024-02-21T03:17:49;19.25;;;8.95;;
71806;SDS011;59655;42.590;23.364;2024-02-21T03:20:15;15.40;;;8.20;;
71806;SDS011;59655;42.590;23.364;2024-02-21T03:22:40;17.23;;;8.68;;
71806;SDS011;59655;42.590;23.364;2024-02-21T03:25:06;16.55;;;8.00;;
71806;SDS011;59655;42.590;23.364;2024-02-21T03:27:32;15.52;;;7.53;;
71806;SDS011;59655;42.590;23.364;2024-02-21T03:29:58;16.45;;;8.40;;
71806;SDS011;59655;42.590;23.364;2024-02-21T03:32:23;13.95;;;8.43;;
71806;SDS011;59655;42.590;23.364;2024-02-21T03:34:49;14.32;;;8.57;;
71806;SDS011;59655;42.590;23.364;2024-02-21T03:37:14;15.93;;;8.40;;
71806;SDS011;59655;42.590;23.364;2024-02-21T03:39:40;16.83;;;8.20;;
71806;SDS011;59655;42.590;23.364;2024-02-21T03:42:05;14.95;;;8.18;;
71806;SDS011;59655;42.590;23.364;2024-02-21T03:44:31;15.18;;;8.32;;
71806;SDS011;59655;42.590;23.364;2024-02-21T03:46:57;14.90;;;7.70;;
71806;SDS011;59655;42.590;23.364;2024-02-21T03:49:23;16.27;;;8.20;;
71806;SDS011;59655;42.590;23.364;2024-02-21T03:51:48;14.05;;;7.22;;
71806;SDS011;59655;42.590;23.364;2024-02-21T03:54:13;15.70;;;8.33;;
71806;SDS011;59655;42.590;23.364;2024-02-21T03:56:39;17.90;;;8.90;;
71806;SDS011;59655;42.590;23.364;2024-02-21T03:59:07;18.38;;;8.00;;
71806;SDS011;59655;42.590;23.364;2024-02-21T04:01:33;14.75;;;7.53;;
71806;SDS011;59655;42.590;23.364;2024-02-21T04:03:59;15.98;;;8.43;;
71806;SDS011;59655;42.590;23.364;2024-02-21T04:06:25;15.88;;;8.70;;
71806;SDS011;59655;42.590;23.364;2024-02-21T04:08:50;16.70;;;9.40;;
71806;SDS011;59655;42.590;23.364;2024-02-21T04:11:15;16.20;;;9.23;;
71806;SDS011;59655;42.590;23.364;2024-02-21T04:13:42;15.63;;;7.80;;
71806;SDS011;59655;42.590;23.364;2024-02-21T04:16:07;13.40;;;7.85;;
71806;SDS011;59655;42.590;23.364;2024-02-21T04:18:33;14.55;;;7.72;;
71806;SDS011;59655;42.590;23.364;2024-02-21T04:20:58;14.80;;;8.23;;
71806;SDS011;59655;42.590;23.364;2024-02-21T04:23:23;14.57;;;8.32;;
71806;SDS011;59655;42.590;23.364;2024-02-21T04:25:49;19.08;;;9.55;;
71806;SDS011;59655;42.590;23.364;2024-02-21T04:28:14;21.10;;;10.48;;
71806;SDS011;59655;42.590;23.364;2024-02-21T04:30:39;18.13;;;10.50;;
71806;SDS011;59655;42.590;23.364;2024-02-21T04:33:05;15.63;;;8.00;;
71806;SDS011;59655;42.590;23.364;2024-02-21T04:35:30;16.33;;;8.75;;
71806;SDS011;59655;42.590;23.364;2024-02-21T04:37:56;19.02;;;10.05;;
71806;SDS011;59655;42.590;23.364;2024-02-21T04:40:21;17.25;;;10.48;;
71806;SDS011;59655;42.590;23.364;2024-02-21T04:42:46;19.83;;;11.30;;
71806;SDS011;59655;42.590;23.364;2024-02-21T04:45:12;16.00;;;8.45;;
71806;SDS011;59655;42.590;23.364;2024-02-21T04:47:37;16.63;;;8.70;;
71806;SDS011;59655;42.590;23.364;2024-02-21T04:50:02;14.57;;;7.57;;
71806;SDS011;59655;42.590;23.364;2024-02-21T04:52:28;22.52;;;11.98;;
71806;SDS011;59655;42.590;23.364;2024-02-21T04:54:54;21.95;;;11.27;;
71806;SDS011;59655;42.590;23.364;2024-02-21T04:57:20;19.55;;;10.13;;
71806;SDS011;59655;42.590;23.364;2024-02-21T04:59:45;17.58;;;9.00;;
71806;SDS011;59655;42.590;23.364;2024-02-21T05:02:12;22.75;;;12.27;;
71806;SDS011;59655;42.590;23.364;2024-02-21T05:04:38;20.55;;;10.82;;
71806;SDS011;59655;42.590;23.364;2024-02-21T05:07:04;21.90;;;13.40;;
71806;SDS011;59655;42.590;23.364;2024-02-21T05:09:30;19.50;;;10.70;;
71806;SDS011;59655;42.590;23.364;2024-02-21T05:11:55;23.58;;;15.32;;
71806;SDS011;59655;42.590;23.364;2024-02-21T05:14:21;16.65;;;11.65;;
71806;SDS011;59655;42.590;23.364;2024-02-21T05:16:46;21.38;;;13.05;;
71806;SDS011;59655;42.590;23.364;2024-02-21T05:19:12;21.40;;;10.38;;
71806;SDS011;59655;42.590;23.364;2024-02-21T05:21:37;22.40;;;12.18;;
71806;SDS011;59655;42.590;23.364;2024-02-21T05:24:02;15.52;;;9.35;;
71806;SDS011;59655;42.590;23.364;2024-02-21T05:26:29;18.75;;;9.82;;
71806;SDS011;59655;42.590;23.364;2024-02-21T05:28:54;19.83;;;11.07;;
71806;SDS011;59655;42.590;23.364;2024-02-21T05:31:20;24.17;;;12.30;;
71806;SDS011;59655;42.590;23.364;2024-02-21T05:33:46;16.67;;;9.57;;
71806;SDS011;59655;42.590;23.364;2024-02-21T05:36:12;28.38;;;13.60;;
71806;SDS011;59655;42.590;23.364;2024-02-21T05:38:37;57.58;;;23.20;;
71806;SDS011;59655;42.590;23.364;2024-02-21T05:41:03;36.13;;;16.77;;
71806;SDS011;59655;42.590;23.364;2024-02-21T05:43:28;23.60;;;11.43;;
71806;SDS011;59655;42.590;23.364;2024-02-21T05:45:54;51.80;;;23.73;;
71806;SDS011;59655;42.590;23.364;2024-02-21T05:48:20;55.90;;;28.05;;
71806;SDS011;59655;42.590;23.364;2024-02-21T05:50:45;24.30;;;13.63;;
71806;SDS011;59655;42.590;23.364;2024-02-21T05:53:11;23.83;;;11.82;;
71806;SDS011;59655;42.590;23.364;2024-02-21T05:55:37;21.52;;;12.05;;
71806;SDS011;59655;42.590;23.364;2024-02-21T05:58:03;18.45;;;10.70;;
71806;SDS011;59655;42.590;23.364;2024-02-21T06:00:29;20.63;;;11.15;;
71806;SDS011;59655;42.590;23.364;2024-02-21T06:02:54;32.50;;;14.75;;
71806;SDS011;59655;42.590;23.364;2024-02-21T06:05:20;36.13;;;17.25;;
71806;SDS011;59655;42.590;23.364;2024-02-21T06:07:45;16.85;;;9.15;;
71806;SDS011;59655;42.590;23.364;2024-02-21T06:10:10;17.70;;;9.20;;
71806;SDS011;59655;42.590;23.364;2024-02-21T06:12:36;18.10;;;9.48;;
71806;SDS011;59655;42.590;23.364;2024-02-21T06:15:01;16.85;;;9.35;;
71806;SDS011;59655;42.590;23.364;2024-02-21T06:17:27;21.27;;;10.77;;
71806;SDS011;59655;42.590;23.364;2024-02-21T06:19:53;19.17;;;8.73;;
71806;SDS011;59655;42.590;23.364;2024-02-21T06:22:18;19.98;;;10.32;;
71806;SDS011;59655;42.590;23.364;2024-02-21T06:24:44;17.80;;;9.50;;
71806;SDS011;59655;42.590;23.364;2024-02-21T06:27:09;17.45;;;9.70;;
71806;SDS011;59655;42.590;23.364;2024-02-21T06:29:36;20.05;;;10.57;;
71806;SDS011;59655;42.590;23.364;2024-02-21T06:32:02;17.52;;;9.15;;
71806;SDS011;59655;42.590;23.364;2024-02-21T06:34:27;16.67;;;9.40;;
71806;SDS011;59655;42.590;23.364;2024-02-21T06:36:52;18.85;;;10.07;;
71806;SDS011;59655;42.590;23.364;2024-02-21T06:39:18;17.40;;;9.57;;
71806;SDS011;59655;42.590;23.364;2024-02-21T06:41:43;17.88;;;9.73;;
71806;SDS011;59655;42.590;23.364;2024-02-21T06:44:09;19.88;;;9.50;;
71806;SDS011;59655;42.590;23.364;2024-02-21T06:46:34;30.00;;;10.10;;
71806;SDS011;59655;42.590;23.364;2024-02-21T06:49:00;17.52;;;9.85;;
71806;SDS011;59655;42.590;23.364;2024-02-21T06:51:28;21.42;;;9.65;;
71806;SDS011;59655;42.590;23.364;2024-02-21T06:53:53;19.73;;;9.30;;
71806;SDS011;59655;42.590;23.364;2024-02-21T06:56:19;17.92;;;10.23;;
71806;SDS011;59655;42.590;23.364;2024-02-21T06:58:45;17.60;;;8.88;;
71806;SDS011;59655;42.590;23.364;2024-02-21T07:01:10;20.98;;;10.63;;
71806;SDS011;59655;42.590;23.364;2024-02-21T07:03:36;17.45;;;9.15;;
71806;SDS011;59655;42.590;23.364;2024-02-21T07:06:02;19.23;;;9.70;;
71806;SDS011;59655;42.590;23.364;2024-02-21T07:08:27;17.42;;;9.02;;
71806;SDS011;59655;42.590;23.364;2024-02-21T07:10:53;20.33;;;9.82;;
71806;SDS011;59655;42.590;23.364;2024-02-21T07:13:18;20.50;;;10.02;;
71806;SDS011;59655;42.590;23.364;2024-02-21T07:15:43;20.83;;;10.63;;
71806;SDS011;59655;42.590;23.364;2024-02-21T07:18:09;17.98;;;9.45;;
71806;SDS011;59655;42.590;23.364;2024-02-21T07:20:34;21.38;;;10.30;;
71806;SDS011;59655;42.590;23.364;2024-02-21T07:23:01;20.05;;;10.52;;
71806;SDS011;59655;42.590;23.364;2024-02-21T07:25:27;17.85;;;9.35;;
71806;SDS011;59655;42.590;23.364;2024-02-21T07:27:52;20.75;;;10.80;;
71806;SDS011;59655;42.590;23.364;2024-02-21T07:30:18;21.60;;;10.80;;
71806;SDS011;59655;42.590;23.364;2024-02-21T07:32:43;19.23;;;10.05;;
71806;SDS011;59655;42.590;23.364;2024-02-21T07:35:09;21.42;;;10.00;;
71806;SDS011;59655;42.590;23.364;2024-02-21T07:37:37;20.45;;;9.90;;
71806;SDS011;59655;42.590;23.364;2024-02-21T07:40:04;21.52;;;10.88;;
71806;SDS011;59655;42.590;23.364;2024-02-21T07:42:31;20.00;;;9.50;;
71806;SDS011;59655;42.590;23.364;2024-02-21T07:44:56;19.15;;;10.13;;
71806;SDS011;59655;42.590;23.364;2024-02-21T07:47:22;20.45;;;10.30;;
71806;SDS011;59655;42.590;23.364;2024-02-21T07:49:47;18.13;;;8.82;;
71806;SDS011;59655;42.590;23.364;2024-02-21T07:52:13;21.02;;;9.50;;
71806;SDS011;59655;42.590;23.364;2024-02-21T07:54:40;20.88;;;9.70;;
71806;SDS011;59655;42.590;23.364;2024-02-21T07:57:06;21.10;;;10.10;;
71806;SDS011;59655;42.590;23.364;2024-02-21T07:59:32;19.83;;;10.40;;
71806;SDS011;59655;42.590;23.364;2024-02-21T08:01:57;21.38;;;10.13;;
71806;SDS011;59655;42.590;23.364;2024-02-21T08:04:23;17.73;;;9.57;;
71806;SDS011;59655;42.590;23.364;2024-02-21T08:06:54;23.55;;;10.68;;
71806;SDS011;59655;42.590;23.364;2024-02-21T08:09:26;19.55;;;9.63;;
71806;SDS011;59655;42.590;23.364;2024-02-21T08:11:51;19.50;;;9.23;;
71806;SDS011;59655;42.590;23.364;2024-02-21T08:14:17;18.77;;;10.15;;
71806;SDS011;59655;42.590;23.364;2024-02-21T08:16:42;20.27;;;9.88;;
71806;SDS011;59655;42.590;23.364;2024-02-21T08:19:09;19.13;;;9.38;;
71806;SDS011;59655;42.590;23.364;2024-02-21T08:21:35;21.80;;;9.50;;
71806;SDS011;59655;42.590;23.364;2024-02-21T08:24:01;19.55;;;10.15;;
71806;SDS011;59655;42.590;23.364;2024-02-21T08:26:26;19.80;;;10.30;;
71806;SDS011;59655;42.590;23.364;2024-02-21T08:28:55;18.60;;;9.85;;
71806;SDS011;59655;42.590;23.364;2024-02-21T08:33:49;21.10;;;10.38;;
71806;SDS011;59655;42.590;23.364;2024-02-21T08:36:18;24.15;;;10.07;;
71806;SDS011;59655;42.590;23.364;2024-02-21T08:38:44;23.88;;;10.30;;
71806;SDS011;59655;42.590;23.364;2024-02-21T08:41:10;19.20;;;10.10;;
71806;SDS011;59655;42.590;23.364;2024-02-21T08:43:36;24.55;;;11.60;;
71806;SDS011;59655;42.590;23.364;2024-02-21T08:46:01;20.63;;;10.00;;
71806;SDS011;59655;42.590;23.364;2024-02-21T08:48:26;17.20;;;9.95;;
71806;SDS011;59655;42.590;23.364;2024-02-21T08:50:52;19.27;;;9.87;;
71806;SDS011;59655;42.590;23.364;2024-02-21T08:53:19;18.52;;;9.70;;
71806;SDS011;59655;42.590;23.364;2024-02-21T08:55:44;18.75;;;10.10;;
71806;SDS011;59655;42.590;23.364;2024-02-21T08:58:10;17.25;;;9.43;;
71806;SDS011;59655;42.590;23.364;2024-02-21T09:00:36;23.20;;;10.35;;
71806;SDS011;59655;42.590;23.364;2024-02-21T09:03:02;19.10;;;9.55;;
71806;SDS011;59655;42.590;23.364;2024-02-21T09:05:27;16.50;;;8.70;;
71806;SDS011;59655;42.590;23.364;2024-02-21T09:07:53;13.25;;;6.93;;
71806;SDS011;59655;42.590;23.364;2024-02-21T09:10:18;20.52;;;7.88;;
71806;SDS011;59655;42.590;23.364;2024-02-21T09:12:44;13.98;;;7.28;;
71806;SDS011;59655;42.590;23.364;2024-02-21T09:15:09;15.63;;;6.88;;
71806;SDS011;59655;42.590;23.364;2024-02-21T09:17:35;14.30;;;7.30;;
71806;SDS011;59655;42.590;23.364;2024-02-21T09:20:01;12.75;;;7.53;;
71806;SDS011;59655;42.590;23.364;2024-02-21T09:22:28;15.68;;;7.90;;
71806;SDS011;59655;42.590;23.364;2024-02-21T09:24:54;15.93;;;8.00;;
71806;SDS011;59655;42.590;23.364;2024-02-21T09:27:19;23.70;;;9.75;;
71806;SDS011;59655;42.590;23.364;2024-02-21T09:29:44;13.00;;;7.03;;
71806;SDS011;59655;42.590;23.364;2024-02-21T09:32:10;15.05;;;7.43;;
71806;SDS011;59655;42.590;23.364;2024-02-21T09:34:35;13.48;;;8.18;;
71806;SDS011;59655;42.590;23.364;2024-02-21T09:37:00;13.05;;;7.10;;
71806;SDS011;59655;42.590;23.364;2024-02-21T09:39:26;14.45;;;7.53;;
71806;SDS011;59655;42.590;23.364;2024-02-21T09:41:53;15.95;;;8.13;;
71806;SDS011;59655;42.590;23.364;2024-02-21T09:44:24;16.73;;;8.02;;
71806;SDS011;59655;42.590;23.364;2024-02-21T09:47:09;14.05;;;7.90;;
71806;SDS011;59655;42.590;23.364;2024-02-21T09:49:38;13.98;;;7.35;;
71806;SDS011;59655;42.590;23.364;2024-02-21T09:52:06;12.50;;;7.00;;
71806;SDS011;59655;42.590;23.364;2024-02-21T09:54:32;14.90;;;8.15;;
71806;SDS011;59655;42.590;23.364;2024-02-21T09:57:02;15.40;;;8.20;;
71806;SDS011;59655;42.590;23.364;2024-02-21T09:59:28;15.52;;;8.40;;
71806;SDS011;59655;42.590;23.364;2024-02-21T10:01:55;21.60;;;9.40;;
71806;SDS011;59655;42.590;23.364;2024-02-21T10:04:21;14.73;;;7.95;;
71806;SDS011;59655;42.590;23.364;2024-02-21T10:06:47;16.42;;;7.50;;
71806;SDS011;59655;42.590;23.364;2024-02-21T10:09:25;11.48;;;6.75;;
71806;SDS011;59655;42.590;23.364;2024-02-21T10:11:54;12.02;;;6.65;;
71806;SDS011;59655;42.590;23.364;2024-02-21T10:14:20;9.75;;;6.10;;
71806;SDS011;59655;42.590;23.364;2024-02-21T10:16:56;11.00;;;6.38;;
71806;SDS011;59655;42.590;23.364;2024-02-21T10:19:23;11.07;;;7.18;;
71806;SDS011;59655;42.590;23.364;2024-02-21T10:22:02;12.88;;;7.32;;
71806;SDS011;59655;42.590;23.364;2024-02-21T10:24:28;15.82;;;8.40;;
71806;SDS011;59655;42.590;23.364;2024-02-21T10:27:04;13.95;;;7.70;;
71806;SDS011;59655;42.590;23.364;2024-02-21T10:29:34;11.95;;;7.18;;
71806;SDS011;59655;42.590;23.364;2024-02-21T10:32:09;10.00;;;6.57;;
71806;SDS011;59655;42.590;23.364;2024-02-21T10:34:35;11.50;;;6.68;;
71806;SDS011;59655;42.590;23.364;2024-02-21T10:37:02;10.23;;;5.75;;
71806;SDS011;59655;42.590;23.364;2024-02-21T10:39:29;8.13;;;5.03;;
71806;SDS011;59655;42.590;23.364;2024-02-21T10:41:59;9.23;;;5.35;;
71806;SDS011;59655;42.590;23.364;2024-02-21T10:44:29;7.90;;;4.95;;
71806;SDS011;59655;42.590;23.364;2024-02-21T10:46:56;8.38;;;5.20;;
71806;SDS011;59655;42.590;23.364;2024-02-21T10:49:25;9.60;;;5.47;;
71806;SDS011;59655;42.590;23.364;2024-02-21T10:57:21;7.70;;;4.72;;
71806;SDS011;59655;42.590;23.364;2024-02-21T10:59:47;7.07;;;4.32;;
71806;SDS011;59655;42.590;23.364;2024-02-21T11:02:14;7.85;;;4.65;;
71806;SDS011;59655;42.590;23.364;2024-02-21T11:04:40;7.35;;;4.78;;
71806;SDS011;59655;42.590;23.364;2024-02-21T11:07:06;7.50;;;4.35;;
71806;SDS011;59655;42.590;23.364;2024-02-21T11:09:33;6.88;;;4.03;;
71806;SDS011;59655;42.590;23.364;2024-02-21T11:11:59;6.57;;;4.13;;
71806;SDS011;59655;42.590;23.364;2024-02-21T11:14:28;7.47;;;4.85;;
71806;SDS011;59655;42.590;23.364;2024-02-21T11:16:57;9.27;;;5.03;;
71806;SDS011;59655;42.590;23.364;2024-02-21T11:19:26;9.85;;;4.57;;
71806;SDS011;59655;42.590;23.364;2024-02-21T11:21:54;7.90;;;4.70;;
71806;SDS011;59655;42.590;23.364;2024-02-21T11:24:28;8.13;;;4.45;;
71806;SDS011;59655;42.590;23.364;2024-02-21T11:26:54;7.00;;;3.85;;
71806;SDS011;59655;42.590;23.364;2024-02-21T11:29:24;9.50;;;4.75;;
71806;SDS011;59655;42.590;23.364;2024-02-21T11:31:50;7.38;;;4.47;;
71806;SDS011;59655;42.590;23.364;2024-02-21T11:34:19;8.32;;;4.60;;
71806;SDS011;59655;42.590;23.364;2024-02-21T11:36:51;8.02;;;3.90;;
71806;SDS011;59655;42.590;23.364;2024-02-21T11:39:21;7.78;;;4.32;;
71806;SDS011;59655;42.590;23.364;2024-02-21T11:44:45;5.85;;;3.00;;
71806;SDS011;59655;42.590;23.364;2024-02-21T11:47:10;7.28;;;4.18;;
71806;SDS011;59655;42.590;23.364;2024-02-21T11:49:42;6.72;;;4.07;;
71806;SDS011;59655;42.590;23.364;2024-02-21T11:52:11;8.27;;;4.38;;
71806;SDS011;59655;42.590;23.364;2024-02-21T11:54:40;7.35;;;3.92;;
71806;SDS011;59655;42.590;23.364;2024-02-21T11:57:06;8.88;;;4.85;;
71806;SDS011;59655;42.590;23.364;2024-02-21T11:59:31;7.55;;;4.40;;
71806;SDS011;59655;42.590;23.364;2024-02-21T12:01:58;7.28;;;3.78;;
71806;SDS011;59655;42.590;23.364;2024-02-21T12:04:24;7.13;;;3.83;;
71806;SDS011;59655;42.590;23.364;2024-02-21T12:06:49;5.60;;;3.33;;
71806;SDS011;59655;42.590;23.364;2024-02-21T12:09:17;6.05;;;3.67;;
71806;SDS011;59655;42.590;23.364;2024-02-21T12:11:43;6.45;;;3.72;;
71806;SDS011;59655;42.590;23.364;2024-02-21T12:14:09;10.43;;;3.90;;
71806;SDS011;59655;42.590;23.364;2024-02-21T12:16:35;7.22;;;3.65;;
71806;SDS011;59655;42.590;23.364;2024-02-21T12:21:32;6.43;;;3.58;;
71806;SDS011;59655;42.590;23.364;2024-02-21T12:24:11;7.55;;;4.40;;
71806;SDS011;59655;42.590;23.364;2024-02-21T12:26:57;7.28;;;4.28;;
71806;SDS011;59655;42.590;23.364;2024-02-21T12:29:23;6.15;;;3.97;;
71806;SDS011;59655;42.590;23.364;2024-02-21T12:31:50;8.02;;;4.10;;
71806;SDS011;59655;42.590;23.364;2024-02-21T12:34:16;8.45;;;4.15;;
71806;SDS011;59655;42.590;23.364;2024-02-21T12:36:45;7.68;;;3.95;;
71806;SDS011;59655;42.590;23.364;2024-02-21T12:39:13;6.63;;;4.28;;
71806;SDS011;59655;42.590;23.364;2024-02-21T12:41:39;6.80;;;3.60;;
71806;SDS011;59655;42.590;23.364;2024-02-21T12:44:06;6.82;;;4.22;;
71806;SDS011;59655;42.590;23.364;2024-02-21T12:46:32;6.32;;;4.43;;
71806;SDS011;59655;42.590;23.364;2024-02-21T12:48:58;7.28;;;4.50;;
71806;SDS011;59655;42.590;23.364;2024-02-21T12:51:23;7.90;;;4.63;;
71806;SDS011;59655;42.590;23.364;2024-02-21T12:53:49;8.85;;;4.70;;
71806;SDS011;59655;42.590;23.364;2024-02-21T12:56:15;8.68;;;4.95;;
71806;SDS011;59655;42.590;23.364;2024-02-21T12:58:40;8.85;;;4.78;;
71806;SDS011;59655;42.590;23.364;2024-02-21T13:01:06;8.43;;;5.22;;
71806;SDS011;59655;42.590;23.364;2024-02-21T13:03:31;11.95;;;5.82;;
71806;SDS011;59655;42.590;23.364;2024-02-21T13:05:56;10.25;;;5.55;;
71806;SDS011;59655;42.590;23.364;2024-02-21T13:08:22;8.82;;;5.35;;
71806;SDS011;59655;42.590;23.364;2024-02-21T13:10:48;10.02;;;5.72;;
71806;SDS011;59655;42.590;23.364;2024-02-21T13:13:14;7.32;;;4.72;;
71806;SDS011;59655;42.590;23.364;2024-02-21T13:15:39;7.50;;;5.05;;
71806;SDS011;59655;42.590;23.364;2024-02-21T13:18:07;7.88;;;4.82;;
71806;SDS011;59655;42.590;23.364;2024-02-21T13:20:33;8.07;;;4.90;;
71806;SDS011;59655;42.590;23.364;2024-02-21T13:22:58;8.43;;;5.07;;
71806;SDS011;59655;42.590;23.364;2024-02-21T13:25:24;6.22;;;3.40;;
71806;SDS011;59655;42.590;23.364;2024-02-21T13:27:49;7.65;;;3.65;;
71806;SDS011;59655;42.590;23.364;2024-02-21T13:30:15;5.35;;;3.70;;
71806;SDS011;59655;42.590;23.364;2024-02-21T13:32:43;5.63;;;2.97;;
71806;SDS011;59655;42.590;23.364;2024-02-21T13:35:11;6.60;;;3.53;;
71806;SDS011;59655;42.590;23.364;2024-02-21T13:37:40;5.47;;;2.80;;
71806;SDS011;59655;42.590;23.364;2024-02-21T13:40:07;7.93;;;3.88;;
71806;SDS011;59655;42.590;23.364;2024-02-21T13:42:34;6.35;;;3.50;;
71806;SDS011;59655;42.590;23.364;2024-02-21T13:44:59;6.95;;;3.80;;
71806;SDS011;59655;42.590;23.364;2024-02-21T13:47:26;7.95;;;4.65;;
71806;SDS011;59655;42.590;23.364;2024-02-21T13:49:51;10.57;;;5.75;;
71806;SDS011;59655;42.590;23.364;2024-02-21T13:52:17;10.40;;;5.75;;
71806;SDS011;59655;42.590;23.364;2024-02-21T13:54:45;11.98;;;6.10;;
71806;SDS011;59655;42.590;23.364;2024-02-21T13:57:10;10.65;;;5.45;;
71806;SDS011;59655;42.590;23.364;2024-02-21T13:59:35;8.70;;;5.55;;
71806;SDS011;59655;42.590;23.364;2024-02-21T14:02:01;10.75;;;6.25;;
71806;SDS011;59655;42.590;23.364;2024-02-21T14:04:26;9.07;;;5.38;;
71806;SDS011;59655;42.590;23.364;2024-02-21T14:06:52;8.85;;;5.10;;
71806;SDS011;59655;42.590;23.364;2024-02-21T14:09:18;8.77;;;5.65;;
71806;SDS011;59655;42.590;23.364;2024-02-21T14:11:44;9.95;;;4.70;;
71806;SDS011;59655;42.590;23.364;2024-02-21T14:14:10;8.10;;;5.05;;
71806;SDS011;59655;42.590;23.364;2024-02-21T14:16:35;7.75;;;4.43;;
71806;SDS011;59655;42.590;23.364;2024-02-21T14:19:01;14.13;;;4.93;;
71806;SDS011;59655;42.590;23.364;2024-02-21T14:21:27;6.78;;;4.32;;
71806;SDS011;59655;42.590;23.364;2024-02-21T14:23:53;8.85;;;4.90;;
71806;SDS011;59655;42.590;23.364;2024-02-21T14:26:19;7.53;;;4.40;;
71806;SDS011;59655;42.590;23.364;2024-02-21T14:28:44;8.35;;;4.78;;
71806;SDS011;59655;42.590;23.364;2024-02-21T14:31:11;12.40;;;5.35;;